Time;durP1;ratioP1;P1;durP2;ratioP2;P2;SDS_P1;SDS_P2;PMS_P1;PMS_P2;Temp;Humidity;BMP_temperature;BMP_pressure;BME280_temperature;BME280_humidity;BME280_pressure;Samples;Min_cycle;Max_cycle;Signal;HPM_P1;HPM_P2
2023/04/21 00:00:54;;;;;;;;;;;;;;;;;;5137802;27;19907;-68
2023/04/21 00:03:21;;;;;;;;;;;;;;;;;;5137483;27;19960;-68
2023/04/21 00:05:47;;;;;;;;;;;;;;;;;;5137772;27;20424;-69
2023/04/21 00:08:13;;;;;;;;;;;;;;;;;;5119251;27;19907;-69
2023/04/21 00:10:39;;;;;;;;;;;;;;;;;;5118930;27;19914;-68
2023/04/21 00:13:04;;;;;;;;;;;;;;;;;;5137533;27;19961;-69
2023/04/21 00:15:30;;;;;;;;;;;;;;;;;;5138124;27;19942;-70
2023/04/21 00:17:57;;;;;;;;;;;;;;;;;;5137155;27;20363;-69
2023/04/21 00:20:25;;;;;;;;;;;;;;;;;;5137498;27;19907;-69
2023/04/21 00:22:51;;;;;;;;;;;;;;;;;;5137601;27;19919;-68
2023/04/21 00:25:17;;;;;;;;;;;;;;;;;;5137022;27;19912;-68
2023/04/21 00:27:43;;;;;;;;;;;;;;;;;;5137348;27;19908;-67
2023/04/21 00:30:09;;;;;;;;;;;;;;;;;;5137224;27;19953;-67
2023/04/21 00:32:35;;;;;;;;;;;;;;;;;;5136780;27;19923;-67
2023/04/21 00:35:01;;;;;;;;;;;;;;;;;;5137277;27;20091;-68
2023/04/21 00:37:27;;;;;;;;;;;;;;;;;;5137115;27;19915;-68
2023/04/21 00:39:53;;;;;;;;;;;;;;;;;;5118347;27;20423;-68
2023/04/21 00:42:19;;;;;;;;;;;;;;;;;;5118613;27;19914;-68
2023/04/21 00:44:45;;;;;;;;;;;;;;;;;;5137093;27;19908;-68
2023/04/21 00:47:11;;;;;;;;;;;;;;;;;;5136578;27;19918;-68
2023/04/21 00:49:37;;;;;;;;;;;;;;;;;;5137025;27;20001;-68
2023/04/21 00:52:03;;;;;;;;;;;;;;;;;;5136300;27;20010;-67
2023/04/21 00:54:29;;;;;;;;;;;;;;;;;;5118404;27;19952;-68
2023/04/21 00:56:57;;;;;;;;;;;;;;;;;;5136556;27;20283;-68
2023/04/21 00:59:23;;;;;;;;;;;;;;;;;;5136135;27;20456;-68
2023/04/21 01:01:49;;;;;;;;;;;;;;;;;;5118129;27;19994;-67
2023/04/21 01:04:15;;;;;;;;;;;;;;;;;;5118094;27;19954;-68
2023/04/21 01:06:41;;;;;;;;;;;;;;;;;;5136234;27;19951;-68
2023/04/21 01:09:07;;;;;;;;;;;;;;;;;;5136452;27;19914;-68
2023/04/21 01:11:33;;;;;;;;;;;;;;;;;;5136373;27;20259;-68
2023/04/21 01:13:59;;;;;;;;;;;;;;;;;;5117527;27;20563;-68
2023/04/21 01:16:26;;;;;;;;;;;;;;;;;;5136288;27;19914;-67
2023/04/21 01:18:52;;;;;;;;;;;;;;;;;;5136236;27;19918;-67
2023/04/21 01:21:18;;;;;;;;;;;;;;;;;;5135796;27;19908;-67
2023/04/21 01:23:44;;;;;;;;;;;;;;;;;;5136267;27;20302;-67
2023/04/21 01:26:10;;;;;;;;;;;;;;;;;;5136404;27;19907;-67
2023/04/21 01:28:36;;;;;;;;;;;;;;;;;;5135506;27;20387;-67
2023/04/21 01:31:02;;;;;;;;;;;;;;;;;;5135973;27;20371;-69
2023/04/21 01:33:28;;;;;;;;;;;;;;;;;;5135836;27;19923;-68
2023/04/21 01:35:54;;;;;;;;;;;;;;;;;;5117227;27;20381;-68
2023/04/21 01:38:20;;;;;;;;;;;;;;;;;;5135873;27;19907;-68
2023/04/21 01:40:46;;;;;;;;;;;;;;;;;;5135880;27;20329;-69
2023/04/21 01:43:12;;;;;;;;;;;;;;;;;;5135439;27;19946;-68
2023/04/21 01:45:38;;;;;;;;;;;;;;;;;;5117289;27;19957;-68
2023/04/21 01:48:04;;;;;;;;;;;;;;;;;;5117285;27;19908;-68
2023/04/21 01:50:30;;;;;;;;;;;;;;;;;;5135268;27;19995;-68
2023/04/21 01:52:56;;;;;;;;;;;;;;;;;;5120437;27;19920;-68
2023/04/21 01:55:22;;;;;;;;;;;;;;;;;;5114087;28;19912;-68
2023/04/21 01:57:48;;;;;;;;;;;;;;;;;;5115074;28;19961;-68
2023/04/21 02:00:14;;;;;;;;;;;;;;;;;;5114929;28;19915;-68
2023/04/21 02:02:39;;;;;;;;;;;;;;;;;;5114053;28;19916;-69
2023/04/21 02:05:05;;;;;;;;;;;;;;;;;;5096564;28;19966;-69
2023/04/21 02:07:31;;;;;;;;;;;;;;;;;;5114979;28;19918;-68
2023/04/21 02:09:57;;;;;;;;;;;;;;;;;;5114356;28;19908;-68
2023/04/21 02:12:23;;;;;;;;;;;;;;;;;;5114579;28;19918;-68
2023/04/21 02:14:49;;;;;;;;;;;;;;;;;;5114752;28;19968;-68
2023/04/21 02:17:16;;;;;;;;;;;;;;;;;;5114242;28;19908;-68
2023/04/21 02:19:42;;;;;;;;;;;;;;;;;;5114455;28;20395;-68
2023/04/21 02:22:09;;;;;;;;;;;;;;;;;;5114497;28;19916;-68
2023/04/21 02:24:35;;;;;;;;;;;;;;;;;;5114228;28;19912;-68
2023/04/21 02:27:01;;;;;;;;;;;;;;;;;;5114508;28;19919;-68
2023/04/21 02:29:27;;;;;;;;;;;;;;;;;;5096096;28;19907;-68
2023/04/21 02:31:53;;;;;;;;;;;;;;;;;;5095656;28;20280;-68
2023/04/21 02:34:19;;;;;;;;;;;;;;;;;;5125116;27;20004;-68
2023/04/21 02:36:45;;;;;;;;;;;;;;;;;;5134640;27;20393;-68
2023/04/21 02:39:11;;;;;;;;;;;;;;;;;;5134535;27;20011;-68
2023/04/21 02:41:37;;;;;;;;;;;;;;;;;;5134897;27;20355;-69
2023/04/21 02:44:03;;;;;;;;;;;;;;;;;;5134940;27;19914;-68
2023/04/21 02:46:29;;;;;;;;;;;;;;;;;;5116035;28;19907;-68
2023/04/21 02:48:55;;;;;;;;;;;;;;;;;;5134892;27;19928;-68
2023/04/21 02:51:21;;;;;;;;;;;;;;;;;;5116101;28;19954;-68
2023/04/21 02:53:47;;;;;;;;;;;;;;;;;;5115813;28;19916;-68
2023/04/21 02:56:13;;;;;;;;;;;;;;;;;;5098523;28;20002;-68
2023/04/21 02:58:39;;;;;;;;;;;;;;;;;;5132457;28;19908;-68
2023/04/21 03:01:05;;;;;;;;;;;;;;;;;;5134667;28;19908;-68
2023/04/21 03:03:31;;;;;;;;;;;;;;;;;;5134603;28;19911;-68
2023/04/21 03:05:57;;;;;;;;;;;;;;;;;;5134061;28;19975;-68
2023/04/21 03:08:23;;;;;;;;;;;;;;;;;;5134558;28;19912;-68
2023/04/21 03:10:49;;;;;;;;;;;;;;;;;;5116176;28;19915;-68
2023/04/21 03:13:16;;;;;;;;;;;;;;;;;;5134248;27;20375;-68
2023/04/21 03:15:41;;;;;;;;;;;;;;;;;;5138621;27;19912;-68
2023/04/21 03:18:07;;;;;;;;;;;;;;;;;;5120189;27;19930;-68
2023/04/21 03:20:33;;;;;;;;;;;;;;;;;;5138130;27;19998;-68
2023/04/21 03:22:59;;;;;;;;;;;;;;;;;;5138507;27;19908;-68
2023/04/21 03:25:28;;;;;;;;;;;;;;;;;;5138577;27;19908;-68
2023/04/21 03:27:54;;;;;;;;;;;;;;;;;;5138017;27;19908;-67
2023/04/21 03:30:20;;;;;;;;;;;;;;;;;;5138409;27;20290;-67
2023/04/21 03:32:46;;;;;;;;;;;;;;;;;;5138257;27;19965;-68
2023/04/21 03:35:12;;;;;;;;;;;;;;;;;;5119381;27;19912;-68
2023/04/21 03:37:38;;;;;;;;;;;;;;;;;;5138207;27;20006;-67
2023/04/21 03:40:07;;;;;;;;;;;;;;;;;;5138258;27;19914;-68
2023/04/21 03:42:33;;;;;;;;;;;;;;;;;;5137732;27;19907;-68
2023/04/21 03:44:59;;;;;;;;;;;;;;;;;;5138140;27;19914;-67
2023/04/21 03:47:25;;;;;;;;;;;;;;;;;;5138160;27;19933;-68
2023/04/21 03:49:51;;;;;;;;;;;;;;;;;;5137661;27;19911;-68
2023/04/21 03:52:17;;;;;;;;;;;;;;;;;;5119288;27;19984;-68
2023/04/21 03:54:43;;;;;;;;;;;;;;;;;;5137908;27;19908;-68
2023/04/21 03:57:09;;;;;;;;;;;;;;;;;;5119006;27;19907;-66
2023/04/21 03:59:35;;;;;;;;;;;;;;;;;;5137840;27;19908;-67
2023/04/21 04:02:01;;;;;;;;;;;;;;;;;;5119064;27;19907;-67
2023/04/21 04:04:27;;;;;;;;;;;;;;;;;;5137696;27;20295;-67
2023/04/21 04:06:52;;;;;;;;;;;;;;;;;;5137738;27;20319;-67
2023/04/21 04:09:18;;;;;;;;;;;;;;;;;;5137279;27;20302;-68
2023/04/21 04:11:44;;;;;;;;;;;;;;;;;;5137563;27;19998;-68
2023/04/21 04:14:10;;;;;;;;;;;;;;;;;;5118917;27;19907;-67
2023/04/21 04:16:36;;;;;;;;;;;;;;;;;;5123579;27;19916;-67
2023/04/21 04:19:02;;;;;;;;;;;;;;;;;;5116856;28;19908;-68
2023/04/21 04:21:28;;;;;;;;;;;;;;;;;;5116782;28;19911;-68
2023/04/21 04:23:54;;;;;;;;;;;;;;;;;;5116279;28;19908;-67
2023/04/21 04:26:24;;;;;;;;;;;;;;;;;;5097320;28;19994;-68
2023/04/21 04:28:50;;;;;;;;;;;;;;;;;;5116684;28;19907;-66
2023/04/21 04:31:16;;;;;;;;;;;;;;;;;;5116591;28;20383;-69
2023/04/21 04:33:42;;;;;;;;;;;;;;;;;;5098208;28;19916;-68
2023/04/21 04:36:08;;;;;;;;;;;;;;;;;;5098124;28;19933;-67
2023/04/21 04:38:36;;;;;;;;;;;;;;;;;;5097898;28;19939;-68
2023/04/21 04:41:02;;;;;;;;;;;;;;;;;;5116489;28;19962;-68
2023/04/21 04:43:28;;;;;;;;;;;;;;;;;;5116474;28;19912;-68
2023/04/21 04:45:54;;;;;;;;;;;;;;;;;;5116143;28;19908;-69
2023/04/21 04:48:20;;;;;;;;;;;;;;;;;;5116437;28;19908;-68
2023/04/21 04:50:46;;;;;;;;;;;;;;;;;;5116302;28;19908;-68
2023/04/21 04:53:12;;;;;;;;;;;;;;;;;;5115714;28;19924;-68
2023/04/21 04:55:38;;;;;;;;;;;;;;;;;;5116213;28;20013;-67
2023/04/21 04:58:03;;;;;;;;;;;;;;;;;;5116165;28;19908;-68
2023/04/21 05:00:30;;;;;;;;;;;;;;;;;;5115595;28;19915;-67
2023/04/21 05:02:56;;;;;;;;;;;;;;;;;;5097734;28;19951;-68
2023/04/21 05:05:23;;;;;;;;;;;;;;;;;;5115638;28;19943;-68
2023/04/21 05:07:49;;;;;;;;;;;;;;;;;;5097629;28;19915;-68
2023/04/21 05:10:15;;;;;;;;;;;;;;;;;;5115904;28;20360;-67
2023/04/21 05:12:41;;;;;;;;;;;;;;;;;;5115376;28;19965;-68
2023/04/21 05:15:07;;;;;;;;;;;;;;;;;;5115751;28;20280;-69
2023/04/21 05:17:33;;;;;;;;;;;;;;;;;;5115961;28;19908;-68
2023/04/21 05:19:59;;;;;;;;;;;;;;;;;;5115371;28;19908;-69
2023/04/21 05:22:25;;;;;;;;;;;;;;;;;;5115715;28;19908;-68
2023/04/21 05:24:51;;;;;;;;;;;;;;;;;;5115599;28;19956;-68
2023/04/21 05:27:17;;;;;;;;;;;;;;;;;;5115272;28;19907;-68
2023/04/21 05:29:43;;;;;;;;;;;;;;;;;;5115536;28;19908;-68
2023/04/21 05:32:11;;;;;;;;;;;;;;;;;;5115420;28;19916;-69
2023/04/21 05:34:37;;;;;;;;;;;;;;;;;;5115096;28;19998;-68
2023/04/21 05:37:03;;;;;;;;;;;;;;;;;;5114685;28;19948;-68
2023/04/21 05:39:29;;;;;;;;;;;;;;;;;;5115258;28;19916;-68
2023/04/21 05:41:55;;;;;;;;;;;;;;;;;;5115020;28;19998;-67
2023/04/21 05:44:21;;;;;;;;;;;;;;;;;;5115501;28;19970;-69
2023/04/21 05:46:47;;;;;;;;;;;;;;;;;;5115218;28;19907;-67
2023/04/21 05:49:12;;;;;;;;;;;;;;;;;;5114783;28;20002;-69
2023/04/21 05:51:38;;;;;;;;;;;;;;;;;;5114801;28;19919;-68
2023/04/21 05:54:04;;;;;;;;;;;;;;;;;;5115142;28;19908;-68
2023/04/21 05:56:30;;;;;;;;;;;;;;;;;;5114703;28;20004;-67
2023/04/21 05:58:56;;;;;;;;;;;;;;;;;;5096602;28;19960;-68
2023/04/21 06:01:22;;;;;;;;;;;;;;;;;;5114952;28;19908;-68
2023/04/21 06:03:48;;;;;;;;;;;;;;;;;;5114554;28;19908;-69
2023/04/21 06:06:14;;;;;;;;;;;;;;;;;;5114709;28;19939;-67
2023/04/21 06:08:40;;;;;;;;;;;;;;;;;;5114725;28;19908;-69
2023/04/21 06:11:06;;;;;;;;;;;;;;;;;;5114685;28;20371;-67
2023/04/21 06:13:32;;;;;;;;;;;;;;;;;;5114685;28;19923;-69
2023/04/21 06:15:58;;;;;;;;;;;;;;;;;;5114387;28;19914;-68
2023/04/21 06:18:24;;;;;;;;;;;;;;;;;;5114921;28;20368;-69
2023/04/21 06:20:50;;;;;;;;;;;;;;;;;;5114973;28;19915;-68
2023/04/21 06:23:16;;;;;;;;;;;;;;;;;;5114657;28;19930;-68
2023/04/21 06:25:42;;;;;;;;;;;;;;;;;;5114763;28;20423;-68
2023/04/21 06:28:08;;;;;;;;;;;;;;;;;;5096276;28;19911;-69
2023/04/21 06:30:34;;;;;;;;;;;;;;;;;;5113904;28;19907;-69
2023/04/21 06:33:00;;;;;;;;;;;;;;;;;;5126611;27;19958;-69
2023/04/21 06:35:26;;;;;;;;;;;;;;;;;;5135348;27;20370;-67
2023/04/21 06:37:52;;;;;;;;;;;;;;;;;;5134513;27;20347;-68
2023/04/21 06:40:18;;;;;;;;;;;;;;;;;;5134953;27;19998;-69
2023/04/21 06:42:44;;;;;;;;;;;;;;;;;;5116497;27;19915;-70
2023/04/21 06:45:10;;;;;;;;;;;;;;;;;;5134548;27;20371;-69
2023/04/21 06:47:36;;;;;;;;;;;;;;;;;;5134702;27;19908;-69
2023/04/21 06:50:02;;;;;;;;;;;;;;;;;;5135285;27;19914;-68
2023/04/21 06:53:38;;;;;;;;;;;;;;;;;;5174032;27;19921;-68
2023/04/21 06:56:04;;;;;;;;;;;;;;;;;;5173611;27;20006;-68
2023/04/21 06:58:30;;;;;;;;;;;;;;;;;;5173246;27;19959;-68
2023/04/21 07:06:50;;;;;;;;;;;;;;;;;;5090949;27;19916;-67
2023/04/21 07:11:33;;;;;;;;;;;;;;;;;;5091766;27;19916;-69
2023/04/21 07:14:01;;;;;;;;;;;;;;;;;;5090660;28;20345;-69
2023/04/21 07:16:27;;;;;;;;;;;;;;;;;;5091207;28;19909;-69
2023/04/21 07:18:53;;;;;;;;;;;;;;;;;;5091025;28;20049;-69
2023/04/21 07:23:52;;;;;;;;;;;;;;;;;;5111641;27;20002;-69
2023/04/21 07:28:42;;;;;;;;;;;;;;;;;;5091310;27;19923;-68
2023/04/21 07:31:08;;;;;;;;;;;;;;;;;;5091335;28;19998;-69
2023/04/21 07:33:34;;;;;;;;;;;;;;;;;;5090808;28;19934;-69
2023/04/21 07:36:00;;;;;;;;;;;;;;;;;;5091251;28;20321;-69
2023/04/21 07:38:26;;;;;;;;;;;;;;;;;;5089835;28;20280;-68
2023/04/21 07:40:52;;;;;;;;;;;;;;;;;;5090789;28;19913;-68
2023/04/21 07:43:18;;;;;;;;;;;;;;;;;;5091103;28;19953;-69
2023/04/21 07:45:45;;;;;;;;;;;;;;;;;;5091127;28;19940;-68
2023/04/21 07:50:44;;;;;;;;;;;;;;;;;;5091799;27;20390;-68
2023/04/21 07:53:10;;;;;;;;;;;;;;;;;;5091136;28;19958;-69
2023/04/21 07:58:31;;;;;;;;;;;;;;;;;;5091758;27;20280;-68
2023/04/21 08:04:48;;;;;;;;;;;;;;;;;;5153248;27;19915;-69
2023/04/21 08:07:14;;;;;;;;;;;;;;;;;;5152914;27;19918;-69
2023/04/21 08:10:05;;;;;;;;;;;;;;;;;;5091109;27;19916;-70
2023/04/21 08:12:31;;;;;;;;;;;;;;;;;;5091432;28;20030;-69
2023/04/21 08:14:56;;;;;;;;;;;;;;;;;;5091236;28;19912;-69
2023/04/21 08:20:28;;;;;;;;;;;;;;;;;;5111832;27;20394;-66
2023/04/21 08:22:54;;;;;;;;;;;;;;;;;;5092957;28;20002;-67
2023/04/21 08:26:56;;;;;;;;;;;;;;;;;;5091241;27;19922;-68
2023/04/21 08:29:22;;;;;;;;;;;;;;;;;;5091140;28;19999;-70
2023/04/21 08:35:33;;;;;;;;;;;;;;;;;;5091887;28;19916;-69
2023/04/21 08:38:48;;;;;;;;;;;;;;;;;;5152781;27;20282;-68
2023/04/21 08:41:14;;;;;;;;;;;;;;;;;;5153221;27;19911;-68
2023/04/21 08:43:40;;;;;;;;;;;;;;;;;;5152410;27;19914;-67
2023/04/21 08:46:06;;;;;;;;;;;;;;;;;;5152567;27;19907;-68
2023/04/21 08:48:32;;;;;;;;;;;;;;;;;;5152712;27;19907;-69
2023/04/21 08:52:02;;;;;;;;;;;;;;;;;;5090956;27;20377;-68
2023/04/21 08:54:29;;;;;;;;;;;;;;;;;;5090037;28;20432;-67
2023/04/21 08:58:32;;;;;;;;;;;;;;;;;;5090902;27;20049;-69
2023/04/21 09:02:40;;;;;;;;;;;;;;;;;;5091576;27;19916;-69
2023/04/21 09:08:21;;;;;;;;;;;;;;;;;;5091701;27;19912;-68
2023/04/21 09:11:37;;;;;;;;;;;;;;;;;;5091324;27;19916;-68
2023/04/21 09:17:37;;;;;;;;;;;;;;;;;;5091726;27;19921;-68
2023/04/21 09:21:56;;;;;;;;;;;;;;;;;;5091349;27;19917;-68
2023/04/21 09:24:22;;;;;;;;;;;;;;;;;;5091422;28;19913;-68
2023/04/21 09:29:01;;;;;;;;;;;;;;;;;;5091946;27;19916;-68
2023/04/21 09:31:27;;;;;;;;;;;;;;;;;;5091391;28;20015;-67
2023/04/21 09:33:54;;;;;;;;;;;;;;;;;;5091018;28;19915;-71
2023/04/21 09:38:30;;;;;;;;;;;;;;;;;;5091316;28;19934;-68
2023/04/21 09:40:56;;;;;;;;;;;;;;;;;;5090855;28;20420;-68
2023/04/21 09:43:22;;;;;;;;;;;;;;;;;;5091245;28;20004;-67
2023/04/21 09:45:48;;;;;;;;;;;;;;;;;;5091183;28;19952;-68
2023/04/21 09:48:15;;;;;;;;;;;;;;;;;;5089497;28;19908;-68
2023/04/21 09:56:29;;;;;;;;;;;;;;;;;;5091919;28;19916;-69
2023/04/21 09:58:55;;;;;;;;;;;;;;;;;;5091356;28;20004;-69
2023/04/21 10:04:10;;;;;;;;;;;;;;;;;;5091536;27;19916;-68
2023/04/21 10:06:36;;;;;;;;;;;;;;;;;;5091250;28;20011;-68
2023/04/21 10:11:46;;;;;;;;;;;;;;;;;;5092006;27;20380;-68
2023/04/21 10:14:12;;;;;;;;;;;;;;;;;;5091652;28;20011;-69
2023/04/21 10:16:38;;;;;;;;;;;;;;;;;;5090764;28;19931;-69
2023/04/21 10:19:04;;;;;;;;;;;;;;;;;;5091180;28;20003;-68
2023/04/21 10:21:44;;;;;;;;;;;;;;;;;;5090983;27;20321;-68
2023/04/21 10:24:10;;;;;;;;;;;;;;;;;;5091616;28;19919;-69
2023/04/21 10:26:36;;;;;;;;;;;;;;;;;;5091174;28;19995;-68
2023/04/21 10:29:02;;;;;;;;;;;;;;;;;;5090803;28;19931;-69
2023/04/21 10:34:28;;;;;;;;;;;;;;;;;;5071353;28;19917;-69
2023/04/21 10:36:54;;;;;;;;;;;;;;;;;;5070693;28;20356;-69
2023/04/21 10:39:20;;;;;;;;;;;;;;;;;;5069791;28;19952;-68
2023/04/21 10:41:46;;;;;;;;;;;;;;;;;;5071053;28;20323;-69
2023/04/21 10:44:12;;;;;;;;;;;;;;;;;;5070696;28;19935;-69
2023/04/21 10:48:25;;;;;;;;;;;;;;;;;;5091718;27;19916;-68
2023/04/21 10:50:51;;;;;;;;;;;;;;;;;;5090851;28;20003;-70
2023/04/21 10:55:19;;;;;;;;;;;;;;;;;;5091519;27;19912;-69
2023/04/21 10:57:45;;;;;;;;;;;;;;;;;;5090899;28;19982;-68
2023/04/21 11:00:44;;;;;;;;;;;;;;;;;;5091688;27;20291;-68
2023/04/21 11:03:10;;;;;;;;;;;;;;;;;;5091221;28;20334;-68
2023/04/21 11:05:37;;;;;;;;;;;;;;;;;;5089920;28;19908;-70
2023/04/21 11:08:03;;;;;;;;;;;;;;;;;;5091191;28;20396;-70
2023/04/21 11:10:29;;;;;;;;;;;;;;;;;;5091293;28;19908;-69
2023/04/21 11:12:55;;;;;;;;;;;;;;;;;;5089647;28;19969;-68
2023/04/21 11:15:21;;;;;;;;;;;;;;;;;;5091485;28;20268;-68
2023/04/21 11:17:47;;;;;;;;;;;;;;;;;;5091476;28;19908;-69
2023/04/21 11:20:13;;;;;;;;;;;;;;;;;;5090926;28;19921;-69
2023/04/21 11:22:39;;;;;;;;;;;;;;;;;;5090968;28;20370;-69
2023/04/21 11:26:37;;;;;;;;;;;;;;;;;;5091132;27;19916;-69
2023/04/21 11:29:03;;;;;;;;;;;;;;;;;;5091363;28;19979;-68
2023/04/21 11:36:38;;;;;;;;;;;;;;;;;;5006907;27;2366288;-68
2023/04/21 11:39:07;;;;;;;;;;;;;;;;;;5091140;28;19939;-67
2023/04/21 11:41:32;;;;;;;;;;;;;;;;;;5091069;28;20284;-67
2023/04/21 11:44:46;;;;;;;;;;;;;;;;;;5090851;28;19912;-69
2023/04/21 11:47:12;;;;;;;;;;;;;;;;;;5090859;28;19920;-68
2023/04/21 11:49:38;;;;;;;;;;;;;;;;;;5089926;28;19916;-69
2023/04/21 11:54:06;;;;;;;;;;;;;;;;;;5091011;27;19916;-67
2023/04/21 11:56:32;;;;;;;;;;;;;;;;;;5090440;28;20444;-69
2023/04/21 11:58:58;;;;;;;;;;;;;;;;;;5091263;28;19908;-68
2023/04/21 12:01:24;;;;;;;;;;;;;;;;;;5090606;28;19908;-68
2023/04/21 12:03:50;;;;;;;;;;;;;;;;;;5091173;28;19909;-69
2023/04/21 12:06:16;;;;;;;;;;;;;;;;;;5089918;28;19936;-68
2023/04/21 12:08:42;;;;;;;;;;;;;;;;;;5090934;28;19908;-68
2023/04/21 12:11:08;;;;;;;;;;;;;;;;;;5090831;28;19908;-67
2023/04/21 12:13:35;;;;;;;;;;;;;;;;;;5090937;28;19916;-69
2023/04/21 12:16:00;;;;;;;;;;;;;;;;;;5089246;28;19909;-70
2023/04/21 12:18:27;;;;;;;;;;;;;;;;;;5089704;28;20383;-68
2023/04/21 12:20:53;;;;;;;;;;;;;;;;;;5089908;28;20256;-69
2023/04/21 12:23:19;;;;;;;;;;;;;;;;;;5090577;28;19935;-69
2023/04/21 12:25:45;;;;;;;;;;;;;;;;;;5090597;28;20308;-68
2023/04/21 12:32:34;;;;;;;;;;;;;;;;;;5092100;27;20276;-69
2023/04/21 12:35:00;;;;;;;;;;;;;;;;;;5090025;28;20003;-68
2023/04/21 12:37:26;;;;;;;;;;;;;;;;;;5089547;28;19908;-68
2023/04/21 12:39:52;;;;;;;;;;;;;;;;;;5091111;28;20023;-68
2023/04/21 12:42:18;;;;;;;;;;;;;;;;;;5091034;28;19908;-68
2023/04/21 12:44:44;;;;;;;;;;;;;;;;;;5090690;28;19922;-69
2023/04/21 12:47:10;;;;;;;;;;;;;;;;;;5091181;28;19909;-69
2023/04/21 12:49:36;;;;;;;;;;;;;;;;;;5090452;28;19912;-69
2023/04/21 12:52:04;;;;;;;;;;;;;;;;;;5089691;28;19920;-69
2023/04/21 12:54:30;;;;;;;;;;;;;;;;;;5090795;28;20365;-69
2023/04/21 12:56:57;;;;;;;;;;;;;;;;;;5089107;28;19916;-68
2023/04/21 12:59:22;;;;;;;;;;;;;;;;;;5091685;28;19919;-68
2023/04/21 13:01:48;;;;;;;;;;;;;;;;;;5090993;28;19909;-69
2023/04/21 13:04:14;;;;;;;;;;;;;;;;;;5091016;28;19915;-68
2023/04/21 13:06:40;;;;;;;;;;;;;;;;;;5089239;28;19954;-69
2023/04/21 13:09:07;;;;;;;;;;;;;;;;;;5089328;28;19912;-68
2023/04/21 13:11:33;;;;;;;;;;;;;;;;;;5090246;28;19920;-69
2023/04/21 13:13:59;;;;;;;;;;;;;;;;;;5090581;28;19917;-69
2023/04/21 13:16:25;;;;;;;;;;;;;;;;;;5090451;28;19909;-69
2023/04/21 13:18:50;;;;;;;;;;;;;;;;;;5091050;28;19908;-68
2023/04/21 13:21:17;;;;;;;;;;;;;;;;;;5089060;28;19912;-69
2023/04/21 13:23:43;;;;;;;;;;;;;;;;;;5089106;28;19920;-68
2023/04/21 13:26:08;;;;;;;;;;;;;;;;;;5090114;28;19953;-69
2023/04/21 13:28:35;;;;;;;;;;;;;;;;;;5090172;28;19908;-68
2023/04/21 13:31:01;;;;;;;;;;;;;;;;;;5097899;28;19927;-69
2023/04/21 13:33:27;;;;;;;;;;;;;;;;;;5110112;28;19908;-69
2023/04/21 13:35:53;;;;;;;;;;;;;;;;;;5110489;28;20006;-69
2023/04/21 13:38:19;;;;;;;;;;;;;;;;;;5110558;28;20023;-69
2023/04/21 13:40:46;;;;;;;;;;;;;;;;;;5109978;28;19992;-69
2023/04/21 13:43:11;;;;;;;;;;;;;;;;;;5082696;28;20275;-70
2023/04/21 13:45:37;;;;;;;;;;;;;;;;;;5096640;28;19940;-69
2023/04/21 13:48:03;;;;;;;;;;;;;;;;;;5096358;28;19908;-70
2023/04/21 13:50:29;;;;;;;;;;;;;;;;;;5097169;28;20394;-68
2023/04/21 13:52:55;;;;;;;;;;;;;;;;;;5096178;28;20430;-70
2023/04/21 13:55:21;;;;;;;;;;;;;;;;;;5078377;28;20003;-67
2023/04/21 13:57:47;;;;;;;;;;;;;;;;;;5096977;28;20379;-69
2023/04/21 14:00:13;;;;;;;;;;;;;;;;;;5096537;28;20374;-69
2023/04/21 14:02:40;;;;;;;;;;;;;;;;;;5096322;28;19933;-69
2023/04/21 14:05:06;;;;;;;;;;;;;;;;;;5096629;28;19908;-69
2023/04/21 14:07:33;;;;;;;;;;;;;;;;;;5095989;28;20463;-69
2023/04/21 14:09:59;;;;;;;;;;;;;;;;;;5096181;28;19908;-69
2023/04/21 14:12:25;;;;;;;;;;;;;;;;;;5096247;28;20057;-69
2023/04/21 14:14:51;;;;;;;;;;;;;;;;;;5077610;28;19914;-69
2023/04/21 14:17:17;;;;;;;;;;;;;;;;;;5077927;28;19991;-69
2023/04/21 14:19:43;;;;;;;;;;;;;;;;;;5096198;28;19908;-69
2023/04/21 14:22:09;;;;;;;;;;;;;;;;;;5095923;28;20432;-69
2023/04/21 14:24:35;;;;;;;;;;;;;;;;;;5095894;28;19908;-69
2023/04/21 14:27:01;;;;;;;;;;;;;;;;;;5077816;28;19909;-69
2023/04/21 14:29:27;;;;;;;;;;;;;;;;;;5095532;28;19912;-69
2023/04/21 14:31:56;;;;;;;;;;;;;;;;;;5077425;28;20396;-69
2023/04/21 14:34:22;;;;;;;;;;;;;;;;;;5095761;28;19912;-69
2023/04/21 14:36:48;;;;;;;;;;;;;;;;;;5095462;28;20280;-68
2023/04/21 14:39:14;;;;;;;;;;;;;;;;;;5077481;28;19908;-68
2023/04/21 14:41:40;;;;;;;;;;;;;;;;;;5095884;28;19908;-69
2023/04/21 14:44:06;;;;;;;;;;;;;;;;;;5095189;28;19947;-68
2023/04/21 14:46:32;;;;;;;;;;;;;;;;;;5077274;28;19912;-68
2023/04/21 14:48:58;;;;;;;;;;;;;;;;;;5077137;28;19908;-69
2023/04/21 14:51:24;;;;;;;;;;;;;;;;;;5095864;28;19916;-68
2023/04/21 14:53:50;;;;;;;;;;;;;;;;;;5076323;28;19931;-67
2023/04/21 14:56:18;;;;;;;;;;;;;;;;;;5094762;28;20340;-68
2023/04/21 14:58:44;;;;;;;;;;;;;;;;;;5095246;28;19914;-68
2023/04/21 15:01:10;;;;;;;;;;;;;;;;;;5077042;28;20002;-68
2023/04/21 15:03:36;;;;;;;;;;;;;;;;;;5094796;28;19908;-70
2023/04/21 15:06:01;;;;;;;;;;;;;;;;;;5076970;28;19977;-69
2023/04/21 15:08:27;;;;;;;;;;;;;;;;;;5095001;28;20003;-69
2023/04/21 15:10:53;;;;;;;;;;;;;;;;;;5094579;28;19920;-68
2023/04/21 15:13:19;;;;;;;;;;;;;;;;;;5094985;28;19912;-69
2023/04/21 15:15:45;;;;;;;;;;;;;;;;;;5095574;28;20352;-69
2023/04/21 15:18:11;;;;;;;;;;;;;;;;;;5094531;28;20253;-68
2023/04/21 15:20:37;;;;;;;;;;;;;;;;;;5094878;28;19915;-69
2023/04/21 15:23:03;;;;;;;;;;;;;;;;;;5094778;28;19951;-69
2023/04/21 15:25:29;;;;;;;;;;;;;;;;;;5094573;28;19916;-70
2023/04/21 15:27:55;;;;;;;;;;;;;;;;;;5094716;28;19908;-68
2023/04/21 15:30:21;;;;;;;;;;;;;;;;;;5094482;28;19908;-68
2023/04/21 15:32:47;;;;;;;;;;;;;;;;;;5076099;28;20405;-69
2023/04/21 15:35:13;;;;;;;;;;;;;;;;;;5094631;28;20279;-69
2023/04/21 15:37:39;;;;;;;;;;;;;;;;;;5094598;28;19915;-70
2023/04/21 15:40:05;;;;;;;;;;;;;;;;;;5075864;28;19944;-69
2023/04/21 15:42:31;;;;;;;;;;;;;;;;;;5095020;28;19916;-69
2023/04/21 15:44:57;;;;;;;;;;;;;;;;;;5095032;28;19908;-69
2023/04/21 15:47:23;;;;;;;;;;;;;;;;;;5094015;28;19912;-70
2023/04/21 15:49:49;;;;;;;;;;;;;;;;;;5094303;28;19950;-69
2023/04/21 15:52:15;;;;;;;;;;;;;;;;;;5094339;28;19959;-69
2023/04/21 15:54:41;;;;;;;;;;;;;;;;;;5094436;28;20280;-69
2023/04/21 15:57:06;;;;;;;;;;;;;;;;;;5076120;28;19959;-69
2023/04/21 15:59:32;;;;;;;;;;;;;;;;;;5093915;28;19912;-68
2023/04/21 16:01:58;;;;;;;;;;;;;;;;;;5076371;28;20003;-69
2023/04/21 16:04:24;;;;;;;;;;;;;;;;;;5076259;28;19908;-68
2023/04/21 16:06:50;;;;;;;;;;;;;;;;;;5093665;28;19908;-69
2023/04/21 16:09:17;;;;;;;;;;;;;;;;;;5094187;28;19908;-69
2023/04/21 16:11:43;;;;;;;;;;;;;;;;;;5075910;28;20424;-69
2023/04/21 16:14:09;;;;;;;;;;;;;;;;;;5093611;28;19915;-68
2023/04/21 16:16:35;;;;;;;;;;;;;;;;;;5075916;28;19912;-69
2023/04/21 16:19:46;;;;;;;;;;;;;;;;;;5071402;28;19923;-69
2023/04/21 16:22:12;;;;;;;;;;;;;;;;;;5069454;28;20011;-69
2023/04/21 16:24:37;;;;;;;;;;;;;;;;;;5071298;28;20272;-69
2023/04/21 16:29:18;;;;;;;;;;;;;;;;;;5153179;27;19915;-69
2023/04/21 16:33:37;;;;;;;;;;;;;;;;;;5092139;27;19923;-69
2023/04/21 16:39:36;;;;;;;;;;;;;;;;;;5092083;27;19923;-68
2023/04/21 16:42:02;;;;;;;;;;;;;;;;;;5090901;28;20006;-69
2023/04/21 16:44:28;;;;;;;;;;;;;;;;;;5091360;28;19909;-69
2023/04/21 16:46:54;;;;;;;;;;;;;;;;;;5091520;28;20392;-68
2023/04/21 16:49:20;;;;;;;;;;;;;;;;;;5090941;28;20352;-70
2023/04/21 16:51:46;;;;;;;;;;;;;;;;;;5091357;28;19927;-68
2023/04/21 16:54:12;;;;;;;;;;;;;;;;;;5091121;28;19908;-68
2023/04/21 16:56:38;;;;;;;;;;;;;;;;;;5089315;28;19909;-68
2023/04/21 16:59:05;;;;;;;;;;;;;;;;;;5089604;28;19923;-68
2023/04/21 17:01:31;;;;;;;;;;;;;;;;;;5091003;28;19909;-68
2023/04/21 17:05:21;;;;;;;;;;;;;;;;;;5124276;27;19916;-68
2023/04/21 17:09:30;;;;;;;;;;;;;;;;;;5092176;27;19923;-68
2023/04/21 17:14:59;;;;;;;;;;;;;;;;;;5092011;27;19917;-70
2023/04/21 17:17:25;;;;;;;;;;;;;;;;;;5091003;28;20444;-68
2023/04/21 17:21:41;;;;;;;;;;;;;;;;;;5092051;27;20372;-68
2023/04/21 17:27:16;;;;;;;;;;;;;;;;;;5091763;27;19913;-68
2023/04/21 17:31:08;;;;;;;;;;;;;;;;;;5091417;27;20394;-70
2023/04/21 17:34:45;;;;;;;;;;;;;;;;;;5111893;27;19912;-69
2023/04/21 17:37:50;;;;;;;;;;;;;;;;;;5091340;27;19916;-69
2023/04/21 17:42:32;;;;;;;;;;;;;;;;;;5092178;27;19916;-68
2023/04/21 17:44:58;;;;;;;;;;;;;;;;;;5090986;28;20046;-69
2023/04/21 17:52:37;;;;;;;;;;;;;;;;;;5131947;27;20338;-69
2023/04/21 17:55:31;;;;;;;;;;;;;;;;;;5091453;27;20398;-69
2023/04/21 17:58:46;;;;;;;;;;;;;;;;;;5091567;27;19919;-69
2023/04/21 18:02:03;;;;;;;;;;;;;;;;;;5091518;27;19916;-68
2023/04/21 18:04:32;;;;;;;;;;;;;;;;;;5091109;28;20334;-69
2023/04/21 18:07:47;;;;;;;;;;;;;;;;;;5091017;27;20303;-69
2023/04/21 18:11:35;;;;;;;;;;;;;;;;;;5091333;27;20227;-69
2023/04/21 18:14:43;;;;;;;;;;;;;;;;;;5070807;28;20396;-68
2023/04/21 18:17:09;;;;;;;;;;;;;;;;;;5069709;28;19912;-68
2023/04/21 18:19:35;;;;;;;;;;;;;;;;;;5069728;28;19908;-68
2023/04/21 18:22:01;;;;;;;;;;;;;;;;;;5070641;28;19908;-68
2023/04/21 18:26:13;;;;;;;;;;;;;;;;;;5091552;27;19939;-68
2023/04/21 18:28:39;;;;;;;;;;;;;;;;;;5090976;28;20413;-69
2023/04/21 18:31:05;;;;;;;;;;;;;;;;;;5089874;28;19909;-68
2023/04/21 18:33:31;;;;;;;;;;;;;;;;;;5091150;28;19914;-68
2023/04/21 18:38:41;;;;;;;;;;;;;;;;;;5173621;27;20280;-68
2023/04/21 18:42:46;;;;;;;;;;;;;;;;;;5152597;27;20006;-68